Time;durP1;ratioP1;P1;durP2;ratioP2;P2;SDS_P1;SDS_P2;PMS_P1;PMS_P2;Temp;Humidity;BMP_temperature;BMP_pressure;BME280_temperature;BME280_humidity;BME280_pressure;Samples;Min_cycle;Max_cycle;Signal;HPM_P1;HPM_P2
2022/04/22 00:02:03;;;;;;;8.35;5.25;;;;;;;9.83;64.23;100853.09;5027680;28;20049;-68
2022/04/22 00:04:33;;;;;;;7.47;5.03;;;;;;;9.81;64.47;100849.63;5029041;28;20038;-67
2022/04/22 00:07:01;;;;;;;10.50;6.05;;;;;;;9.79;64.60;100842.63;5027618;28;20048;-67
2022/04/22 00:09:28;;;;;;;9.25;5.97;;;;;;;9.76;64.53;100844.47;5032707;28;20064;-67
2022/04/22 00:11:56;;;;;;;8.80;5.78;;;;;;;9.74;65.27;100838.38;5031426;28;20092;-68
2022/04/22 00:14:24;;;;;;;9.43;5.78;;;;;;;9.71;65.57;100844.59;5032923;28;20962;-67
2022/04/22 00:16:51;;;;;;;10.77;6.10;;;;;;;9.68;65.18;100835.94;5030075;28;20049;-67
2022/04/22 00:19:22;;;;;;;11.52;6.40;;;;;;;9.64;65.58;100827.25;5029323;28;20041;-68
2022/04/22 00:21:50;;;;;;;9.43;5.70;;;;;;;9.63;65.98;100834.28;5026925;28;20508;-66
2022/04/22 00:24:17;;;;;;;11.65;6.28;;;;;;;9.60;65.76;100829.13;5025498;28;20042;-68
2022/04/22 00:26:44;;;;;;;9.80;6.07;;;;;;;9.57;65.92;100828.31;5029820;28;20038;-69
2022/04/22 00:29:11;;;;;;;9.45;6.07;;;;;;;9.53;66.25;100829.31;5033945;28;20041;-67
2022/04/22 00:31:39;;;;;;;9.90;6.32;;;;;;;9.51;66.75;100824.09;5028198;28;20046;-67
2022/04/22 00:34:06;;;;;;;9.90;6.40;;;;;;;9.47;66.92;100825.91;5026976;28;20058;-67
2022/04/22 00:36:34;;;;;;;11.75;6.80;;;;;;;9.44;66.65;100826.00;5032056;28;20561;-67
2022/04/22 00:39:01;;;;;;;9.95;6.07;;;;;;;9.43;67.45;100832.19;5032890;28;20065;-67
2022/04/22 00:41:29;;;;;;;10.48;6.20;;;;;;;9.43;67.14;100829.53;5033793;28;20042;-68
2022/04/22 00:43:57;;;;;;;9.90;6.18;;;;;;;9.43;67.17;100826.91;5033538;28;20050;-68
2022/04/22 00:46:25;;;;;;;12.00;6.55;;;;;;;9.39;67.54;100827.03;5030862;28;20088;-67
2022/04/22 00:48:52;;;;;;;10.48;6.35;;;;;;;9.33;67.23;100826.28;5034034;28;20065;-67
2022/04/22 00:51:22;;;;;;;10.70;6.55;;;;;;;9.31;67.70;100822.81;5032108;28;20053;-68
2022/04/22 00:53:52;;;;;;;12.77;7.10;;;;;;;9.27;67.94;100822.94;5029414;28;20050;-67
2022/04/22 00:56:20;;;;;;;10.02;7.18;;;;;;;9.22;67.91;100823.03;5032182;28;20090;-68
2022/04/22 00:58:49;;;;;;;11.15;7.60;;;;;;;9.17;67.69;100820.53;5031339;28;20037;-69
2022/04/22 01:01:17;;;;;;;12.18;6.55;;;;;;;9.14;68.42;100819.75;5031810;28;20042;-69
2022/04/22 01:12:06;;;;;;;12.05;7.47;;;;;;;9.05;68.86;100806.81;5031171;28;20054;-69
2022/04/22 01:14:34;;;;;;;10.10;7.10;;;;;;;9.04;69.20;100807.72;5029889;28;20045;-69
2022/04/22 01:17:02;;;;;;;12.00;7.90;;;;;;;9.00;69.08;100796.41;5031802;28;20038;-69
2022/04/22 01:19:29;;;;;;;10.35;7.63;;;;;;;8.96;69.19;100800.00;5030359;28;20039;-69
2022/04/22 01:21:56;;;;;;;11.30;7.15;;;;;;;8.90;68.88;100795.78;5032406;28;20593;-70
2022/04/22 01:24:23;;;;;;;10.82;7.32;;;;;;;8.85;69.06;100798.50;5032204;28;20041;-70
2022/04/22 01:26:55;;;;;;;9.75;7.45;;;;;;;8.79;69.59;100793.41;5029144;28;20045;-70
2022/04/22 01:29:22;;;;;;;12.73;7.88;;;;;;;8.75;70.06;100786.47;5029882;28;20463;-70
2022/04/22 01:31:50;;;;;;;12.65;7.70;;;;;;;8.72;69.85;100775.19;5031989;28;20057;-69
2022/04/22 01:34:17;;;;;;;13.90;7.05;;;;;;;8.71;70.14;100787.47;5032790;28;20062;-69
2022/04/22 01:36:44;;;;;;;11.43;8.07;;;;;;;8.69;70.33;100781.38;5032079;28;20460;-70
2022/04/22 01:39:11;;;;;;;11.80;8.05;;;;;;;8.67;70.60;100783.16;5032639;28;20491;-70
2022/04/22 01:41:38;;;;;;;11.63;7.65;;;;;;;8.65;70.96;100779.72;5029810;28;20042;-69
2022/04/22 01:44:06;;;;;;;12.30;7.65;;;;;;;8.62;70.94;100780.66;5031942;28;20127;-69
2022/04/22 01:46:33;;;;;;;9.80;7.50;;;;;;;8.61;71.26;100778.91;5030584;28;20548;-69
2022/04/22 01:49:01;;;;;;;13.73;8.27;;;;;;;8.60;71.25;100773.72;5033606;28;20057;-68
2022/04/22 01:51:29;;;;;;;12.02;8.38;;;;;;;8.55;71.06;100776.44;5023805;28;20042;-68
2022/04/22 01:53:56;;;;;;;12.70;8.43;;;;;;;8.52;71.19;100768.63;5026959;28;20048;-69
2022/04/22 01:56:24;;;;;;;11.70;8.30;;;;;;;8.46;70.90;100772.22;5029024;28;20042;-70
2022/04/22 01:58:52;;;;;;;14.05;7.93;;;;;;;8.40;70.98;100778.47;5021908;28;20117;-69
2022/04/22 02:01:20;;;;;;;11.27;7.75;;;;;;;8.38;71.40;100776.78;5027635;28;20038;-69
2022/04/22 02:03:47;;;;;;;14.50;8.07;;;;;;;8.36;71.69;100783.84;5031216;28;20042;-68
2022/04/22 02:06:14;;;;;;;13.10;8.52;;;;;;;8.33;71.78;100784.78;5028478;28;20045;-67
2022/04/22 02:08:42;;;;;;;12.07;8.63;;;;;;;8.29;71.62;100772.59;5023744;28;20515;-68
2022/04/22 02:11:09;;;;;;;13.43;8.25;;;;;;;8.27;71.76;100770.91;5028855;28;20046;-69
2022/04/22 02:13:39;;;;;;;13.30;8.73;;;;;;;8.25;72.05;100770.94;5031590;28;20042;-68
2022/04/22 02:16:08;;;;;;;13.98;8.80;;;;;;;8.23;72.42;100772.75;5029850;28;20041;-69
2022/04/22 02:18:41;;;;;;;12.60;8.35;;;;;;;8.22;72.96;100776.25;5031090;28;20072;-68
2022/04/22 02:21:10;;;;;;;12.13;8.68;;;;;;;8.18;72.52;100775.47;5018799;28;21213;-70
2022/04/22 02:23:40;;;;;;;13.55;8.77;;;;;;;8.13;72.34;100772.09;5031635;28;20042;-69
2022/04/22 02:26:07;;;;;;;18.10;9.63;;;;;;;8.09;72.16;100766.00;5030183;28;20053;-70
2022/04/22 02:28:38;;;;;;;14.07;8.70;;;;;;;8.08;72.56;100768.69;5027750;28;20048;-70
2022/04/22 02:31:08;;;;;;;12.27;8.65;;;;;;;8.05;72.68;100767.00;5030241;28;20046;-69
2022/04/22 02:33:40;;;;;;;13.75;9.25;;;;;;;8.03;73.02;100762.69;5030718;28;20093;-71
2022/04/22 02:36:09;;;;;;;13.13;9.30;;;;;;;8.01;72.49;100761.84;5031356;28;20068;-70
2022/04/22 02:38:38;;;;;;;14.38;9.50;;;;;;;7.97;72.44;100761.03;5031439;28;20049;-70
2022/04/22 02:46:37;;;;;;;15.23;10.05;;;;;;;7.86;72.48;100758.63;5028928;28;20455;-68
2022/04/22 02:49:04;;;;;;;15.93;10.00;;;;;;;7.87;73.46;100754.25;5032393;28;20780;-70
2022/04/22 02:51:31;;;;;;;12.95;9.57;;;;;;;7.89;73.78;100742.81;5026492;28;20504;-69
2022/04/22 02:53:58;;;;;;;14.43;10.02;;;;;;;7.90;73.48;100747.16;5028591;28;20038;-69
2022/04/22 02:56:26;;;;;;;15.35;10.30;;;;;;;7.93;74.16;100749.75;5030512;28;20050;-69
2022/04/22 02:58:55;;;;;;;16.30;10.05;;;;;;;7.97;74.33;100745.28;5031420;28;20481;-70
2022/04/22 03:01:23;;;;;;;14.10;10.07;;;;;;;7.99;74.02;100740.84;5029336;28;20050;-70
2022/04/22 03:03:50;;;;;;;16.00;10.52;;;;;;;8.01;74.54;100741.69;5031713;28;20116;-69
2022/04/22 03:06:17;;;;;;;13.02;9.80;;;;;;;8.02;74.70;100737.31;5029910;28;20515;-69
2022/04/22 03:08:45;;;;;;;15.60;10.52;;;;;;;8.01;74.76;100741.69;5031028;28;20041;-69
2022/04/22 03:11:20;;;;;;;14.43;10.07;;;;;;;8.02;75.35;100746.03;5031434;28;20046;-70
2022/04/22 03:13:52;;;;;;;18.33;10.88;;;;;;;8.05;75.01;100742.47;5029552;28;20404;-69
2022/04/22 03:16:25;;;;;;;15.65;10.25;;;;;;;8.07;74.91;100743.31;5024437;28;20042;-69
2022/04/22 03:18:53;;;;;;;14.60;10.30;;;;;;;8.08;74.67;100738.06;5033066;28;20072;-69
2022/04/22 03:21:22;;;;;;;17.48;10.23;;;;;;;8.07;74.88;100731.06;5023896;28;20038;-69
2022/04/22 03:23:49;;;;;;;18.88;10.57;;;;;;;8.09;74.91;100738.91;5013469;28;20046;-69
2022/04/22 03:26:16;;;;;;;14.88;10.48;;;;;;;8.13;75.13;100744.94;5035960;28;20046;-68
2022/04/22 03:28:43;;;;;;;16.65;10.32;;;;;;;8.16;75.14;100737.00;5031517;28;20038;-68
2022/04/22 03:31:10;;;;;;;17.48;10.75;;;;;;;8.19;74.93;100736.94;5029797;28;20116;-68
2022/04/22 03:33:38;;;;;;;17.30;10.80;;;;;;;8.22;74.88;100739.50;5029936;28;20112;-68
2022/04/22 03:36:05;;;;;;;17.27;10.52;;;;;;;8.24;74.92;100735.91;5032853;28;20092;-68
2022/04/22 03:38:32;;;;;;;18.52;10.52;;;;;;;8.25;74.79;100728.94;5026435;28;20053;-68
2022/04/22 03:40:59;;;;;;;18.73;10.15;;;;;;;8.26;75.16;100730.66;5032146;28;20034;-67
2022/04/22 03:43:27;;;;;;;17.23;11.25;;;;;;;8.25;74.56;100728.94;5031534;28;20042;-70
2022/04/22 03:45:55;;;;;;;16.23;10.23;;;;;;;8.22;74.83;100719.34;5035697;28;20046;-68
2022/04/22 03:48:22;;;;;;;18.70;10.93;;;;;;;8.19;75.03;100724.66;5034087;28;20053;-70
2022/04/22 03:50:53;;;;;;;18.48;11.75;;;;;;;8.18;75.29;100722.09;5034121;28;20034;-70
2022/04/22 03:53:20;;;;;;;16.77;10.45;;;;;;;8.17;74.99;100715.09;5032884;28;20038;-71
2022/04/22 03:55:47;;;;;;;17.25;10.88;;;;;;;8.15;75.11;100715.13;5034770;28;20053;-71
2022/04/22 03:58:17;;;;;;;16.42;11.00;;;;;;;8.12;75.53;100715.22;5034657;28;20424;-69
2022/04/22 04:00:53;;;;;;;15.30;11.05;;;;;;;8.09;75.32;100725.78;5034670;28;20045;-70
2022/04/22 04:03:23;;;;;;;16.00;10.13;;;;;;;8.07;75.84;100717.94;5033343;28;20117;-69
2022/04/22 04:05:51;;;;;;;16.77;10.13;;;;;;;8.07;75.54;100719.69;5033790;28;20978;-69
2022/04/22 04:08:21;;;;;;;14.55;9.82;;;;;;;8.04;75.57;100715.38;5033469;28;20096;-70
2022/04/22 04:16:21;;;;;;;15.05;9.75;;;;;;;7.98;76.44;100723.38;5025635;28;20041;-68
2022/04/22 04:18:49;;;;;;;16.08;9.88;;;;;;;7.95;76.39;100720.81;5033104;28;20859;-69
2022/04/22 04:24:03;;;;;;;15.05;11.00;;;;;;;7.92;76.76;100727.00;5031345;28;20072;-70
2022/04/22 04:26:30;;;;;;;16.50;11.07;;;;;;;7.91;76.86;100729.66;5031453;28;20037;-71
2022/04/22 04:28:58;;;;;;;16.92;10.95;;;;;;;7.92;77.29;100729.63;5032097;28;20113;-68
2022/04/22 04:31:29;;;;;;;17.13;11.10;;;;;;;7.93;77.22;100728.75;5028869;28;20038;-68
2022/04/22 04:33:56;;;;;;;15.57;10.50;;;;;;;7.92;77.29;100721.75;5028002;28;20057;-67
2022/04/22 04:36:24;;;;;;;16.77;11.40;;;;;;;7.93;77.36;100723.50;5032944;28;20609;-68
2022/04/22 04:38:51;;;;;;;15.57;11.02;;;;;;;7.92;77.29;100716.50;5029675;28;20042;-68
2022/04/22 04:41:18;;;;;;;15.60;11.30;;;;;;;7.94;77.41;100716.47;5026339;28;20050;-66
2022/04/22 04:43:45;;;;;;;16.17;10.70;;;;;;;7.96;77.64;100719.94;5029388;28;20038;-67
2022/04/22 04:46:12;;;;;;;17.33;12.13;;;;;;;8.04;77.69;100717.13;5024932;28;20034;-66
2022/04/22 04:48:45;;;;;;;18.92;12.25;;;;;;;8.31;77.48;100712.16;5029196;28;20767;-67
2022/04/22 04:51:12;;;;;;;17.92;12.32;;;;;;;8.65;76.98;100709.63;5023877;28;20038;-67
2022/04/22 04:53:39;;;;;;;18.75;12.65;;;;;;;9.00;76.30;100704.38;5031658;28;20042;-68
2022/04/22 04:56:06;;;;;;;15.77;11.10;;;;;;;9.37;75.17;100711.28;5030812;28;20073;-67
2022/04/22 04:58:33;;;;;;;16.17;11.50;;;;;;;9.82;73.86;100712.66;5032924;28;20048;-68
2022/04/22 05:01:00;;;;;;;16.98;11.60;;;;;;;10.18;71.90;100701.94;5030205;28;20041;-67
2022/04/22 05:03:28;;;;;;;16.92;11.75;;;;;;;10.48;70.80;100703.72;5028778;28;20612;-67
2022/04/22 05:05:55;;;;;;;18.50;11.73;;;;;;;10.73;69.91;100701.13;5026730;28;20038;-68
2022/04/22 05:08:22;;;;;;;18.88;12.52;;;;;;;10.80;69.68;100702.66;5027908;28;20042;-68
2022/04/22 05:10:50;;;;;;;17.27;12.30;;;;;;;10.70;69.26;100706.50;5030314;28;20117;-68
2022/04/22 05:13:17;;;;;;;17.67;11.85;;;;;;;10.70;69.15;100712.63;5030543;28;20053;-69
2022/04/22 05:15:45;;;;;;;17.55;11.65;;;;;;;11.01;68.53;100702.84;5033096;28;20061;-69
2022/04/22 05:18:12;;;;;;;15.38;11.85;;;;;;;11.48;67.39;100707.34;5031838;28;20112;-67
2022/04/22 05:20:41;;;;;;;17.77;11.50;;;;;;;11.83;66.07;100707.81;5033596;28;20045;-69
2022/04/22 05:23:08;;;;;;;15.52;10.80;;;;;;;12.05;65.26;100712.31;5032139;28;20037;-69
2022/04/22 05:25:35;;;;;;;19.08;12.18;;;;;;;12.30;64.68;100706.09;5031602;28;20140;-68
2022/04/22 05:28:08;;;;;;;15.77;11.40;;;;;;;12.63;63.78;100708.25;5031544;28;20064;-67
2022/04/22 05:33:21;;;;;;;15.50;11.90;;;;;;;13.09;62.25;100706.34;5027406;28;20057;-68
2022/04/22 05:35:48;;;;;;;16.17;11.27;;;;;;;13.30;61.91;100704.53;5029706;28;20128;-68
2022/04/22 05:38:17;;;;;;;17.20;12.00;;;;;;;13.44;60.90;100701.31;5025737;28;20142;-68
2022/04/22 05:40:46;;;;;;;14.15;10.32;;;;;;;13.24;61.01;100699.53;5031351;28;20052;-68
2022/04/22 05:43:13;;;;;;;16.88;11.80;;;;;;;12.47;62.35;100700.97;5034072;28;20054;-69
2022/04/22 05:45:40;;;;;;;15.25;11.73;;;;;;;11.80;64.80;100706.16;5028604;28;20038;-70
2022/04/22 05:48:08;;;;;;;16.85;12.13;;;;;;;11.38;66.38;100706.81;5030110;28;20046;-68
2022/04/22 05:50:35;;;;;;;21.85;11.88;;;;;;;11.05;68.10;100708.84;5031304;28;20042;-69
2022/04/22 05:53:03;;;;;;;17.70;12.20;;;;;;;10.86;68.78;100706.84;5030464;28;20416;-69
2022/04/22 05:55:30;;;;;;;18.23;11.48;;;;;;;10.77;69.52;100707.16;5031463;28;20034;-69
2022/04/22 05:57:59;;;;;;;17.13;13.32;;;;;;;10.66;69.88;100705.75;5032211;28;20081;-70
2022/04/22 06:00:32;;;;;;;17.85;12.55;;;;;;;10.62;70.05;100706.75;5032556;28;20045;-69
2022/04/22 06:03:01;;;;;;;20.52;13.20;;;;;;;10.61;70.58;100712.91;5032885;28;20126;-69
2022/04/22 06:05:29;;;;;;;18.60;13.02;;;;;;;10.63;71.14;100720.81;5031990;28;20050;-69
2022/04/22 06:10:41;;;;;;;20.17;13.48;;;;;;;10.65;71.09;100706.66;5012835;28;20044;-70
2022/04/22 06:13:09;;;;;;;18.45;13.10;;;;;;;10.67;71.26;100711.84;5030686;28;20042;-69
2022/04/22 06:15:36;;;;;;;19.13;13.07;;;;;;;10.70;71.11;100701.22;5031347;28;20452;-70
2022/04/22 06:18:04;;;;;;;18.65;12.77;;;;;;;10.73;71.07;100703.78;5032924;28;20504;-70
2022/04/22 06:20:31;;;;;;;19.00;13.27;;;;;;;10.77;71.02;100704.53;5033297;28;20057;-68
2022/04/22 06:22:59;;;;;;;19.15;14.27;;;;;;;10.81;71.07;100707.00;5032131;28;20766;-70
2022/04/22 06:25:28;;;;;;;19.83;13.10;;;;;;;10.84;71.01;100696.34;5032512;28;20046;-70
2022/04/22 06:27:56;;;;;;;21.23;12.25;;;;;;;10.90;70.86;100700.53;5032189;28;20045;-70
2022/04/22 06:30:24;;;;;;;18.85;13.02;;;;;;;10.95;70.61;100698.63;5032529;28;20045;-69
2022/04/22 06:32:54;;;;;;;17.85;11.90;;;;;;;11.00;70.46;100701.09;5032395;28;20078;-69
2022/04/22 06:35:21;;;;;;;16.90;13.05;;;;;;;11.08;70.49;100703.50;5030484;28;20068;-68
2022/04/22 06:37:52;;;;;;;16.58;12.90;;;;;;;11.13;70.02;100699.78;5031713;28;20133;-68
2022/04/22 06:45:55;;;;;;;16.08;12.63;;;;;;;11.29;69.25;100699.22;5032020;28;20503;-69
2022/04/22 06:48:33;;;;;;;17.58;13.23;;;;;;;11.43;69.17;100698.72;5031348;28;20099;-70
2022/04/22 06:51:13;;;;;;;16.88;12.70;;;;;;;11.40;68.96;100696.19;5012786;28;20125;-69
2022/04/22 06:53:41;;;;;;;17.92;13.43;;;;;;;11.54;68.82;100699.19;5012685;28;20038;-69
2022/04/22 06:56:09;;;;;;;15.35;12.30;;;;;;;11.54;68.22;100704.47;5016476;28;20054;-69
2022/04/22 06:58:38;;;;;;;16.20;12.90;;;;;;;11.35;68.64;100699.00;5031416;28;20038;-70
2022/04/22 07:01:08;;;;;;;16.83;12.55;;;;;;;11.26;69.37;100700.19;5031931;28;20046;-69
2022/04/22 07:03:57;;;;;;;16.75;12.07;;;;;;;11.19;69.51;100704.81;5032147;28;20042;-69
2022/04/22 07:06:25;;;;;;;18.00;12.70;;;;;;;11.24;69.42;100706.44;5032027;28;20050;-68
2022/04/22 07:08:54;;;;;;;18.58;12.70;;;;;;;11.32;69.17;100707.03;5036091;28;20042;-68
2022/04/22 07:11:28;;;;;;;18.05;12.80;;;;;;;11.41;69.11;100697.91;5036906;28;20038;-69
2022/04/22 07:13:58;;;;;;;15.70;12.60;;;;;;;11.56;68.83;100697.38;5037083;28;20041;-69
2022/04/22 07:16:26;;;;;;;18.83;12.95;;;;;;;11.72;67.98;100689.75;5036862;28;20096;-69
2022/04/22 07:18:55;;;;;;;18.42;13.02;;;;;;;11.79;67.69;100688.59;5035034;28;20435;-69
2022/04/22 07:21:24;;;;;;;16.20;12.45;;;;;;;11.84;67.84;100687.56;5032536;28;20504;-69
2022/04/22 07:23:58;;;;;;;19.98;12.43;;;;;;;11.90;67.62;100689.94;5032302;28;20037;-70
2022/04/22 07:26:26;;;;;;;16.98;12.40;;;;;;;11.91;67.45;100684.59;5030515;28;20061;-69
2022/04/22 07:28:58;;;;;;;16.70;13.10;;;;;;;11.93;67.50;100679.28;5031972;28;20058;-69
2022/04/22 07:31:30;;;;;;;16.95;13.63;;;;;;;12.01;67.40;100673.72;5031939;28;20038;-69
2022/04/22 07:33:58;;;;;;;16.75;12.77;;;;;;;12.09;66.76;100676.94;5031163;28;20054;-70
2022/04/22 07:36:25;;;;;;;17.48;12.82;;;;;;;12.07;66.69;100669.06;5031500;28;20041;-69
2022/04/22 07:38:52;;;;;;;17.05;11.70;;;;;;;12.08;66.72;100672.56;5032133;28;20048;-69
2022/04/22 07:41:25;;;;;;;16.88;12.88;;;;;;;12.08;66.71;100680.50;5030012;28;20054;-68
2022/04/22 07:46:48;;;;;;;16.35;12.57;;;;;;;12.25;66.37;100682.47;5012019;28;20034;-68
2022/04/22 07:49:20;;;;;;;16.17;12.38;;;;;;;12.38;65.44;100683.69;5026716;28;20050;-70
2022/04/22 07:51:48;;;;;;;16.13;12.60;;;;;;;12.59;64.97;100683.75;5030909;28;20141;-69
2022/04/22 07:54:16;;;;;;;16.45;12.75;;;;;;;12.78;64.09;100678.56;5031019;28;20170;-69
2022/04/22 07:56:44;;;;;;;17.13;12.32;;;;;;;13.00;63.49;100675.00;5031532;28;20038;-69
2022/04/22 07:59:11;;;;;;;16.38;12.10;;;;;;;13.23;63.00;100662.56;5029312;28;20050;-68
2022/04/22 08:01:40;;;;;;;16.10;11.57;;;;;;;13.35;61.81;100673.44;5030964;28;20053;-69
2022/04/22 08:04:10;;;;;;;16.88;12.18;;;;;;;13.43;61.51;100662.53;5031309;28;20117;-70
2022/04/22 08:06:38;;;;;;;15.77;11.95;;;;;;;13.62;61.04;100665.19;5031406;28;20027;-69
2022/04/22 08:09:05;;;;;;;16.00;12.27;;;;;;;13.76;60.37;100666.38;5030324;28;20494;-70
2022/04/22 08:11:33;;;;;;;15.35;11.90;;;;;;;13.81;60.84;100672.28;5031685;28;20045;-69
2022/04/22 08:14:00;;;;;;;18.23;12.07;;;;;;;13.75;60.27;100659.34;5031300;28;20076;-69
2022/04/22 08:16:27;;;;;;;16.25;13.10;;;;;;;13.66;60.46;100657.97;5018923;28;20060;-70
2022/04/22 08:18:54;;;;;;;15.27;10.88;;;;;;;13.63;59.85;100653.69;5011692;28;20034;-69
2022/04/22 08:21:32;;;;;;;16.67;12.70;;;;;;;13.68;59.47;100663.22;5011742;28;20043;-70
2022/04/22 08:24:03;;;;;;;14.90;12.15;;;;;;;13.68;59.81;100660.56;5026065;28;20038;-68
2022/04/22 08:26:32;;;;;;;16.63;13.27;;;;;;;13.69;60.06;100656.97;5031055;28;20046;-69
2022/04/22 08:29:00;;;;;;;16.90;11.85;;;;;;;13.82;59.28;100663.41;5031333;28;20812;-68
2022/04/22 08:31:27;;;;;;;21.08;13.00;;;;;;;13.89;59.01;100654.25;5034099;28;20042;-68
2022/04/22 08:33:57;;;;;;;16.95;13.02;;;;;;;14.04;58.29;100652.66;5032521;28;20061;-69
2022/04/22 08:36:29;;;;;;;20.05;12.50;;;;;;;14.24;57.93;100650.88;5034032;28;20096;-70
2022/04/22 08:38:59;;;;;;;16.30;11.40;;;;;;;14.67;57.77;100647.91;5034774;28;20046;-70
2022/04/22 08:41:27;;;;;;;13.13;10.98;;;;;;;14.89;55.62;100659.13;5034076;28;20054;-69
2022/04/22 08:43:59;;;;;;;14.27;10.60;;;;;;;14.68;55.99;100647.81;5034114;28;20057;-69
2022/04/22 08:52:00;;;;;;;17.27;11.05;;;;;;;14.75;55.98;100640.41;5014696;28;20055;-69
2022/04/22 08:54:29;;;;;;;13.23;10.48;;;;;;;14.83;55.97;100627.59;5033021;28;20042;-69
2022/04/22 08:57:02;;;;;;;13.23;10.15;;;;;;;14.96;55.10;100621.66;5034186;28;20093;-68
2022/04/22 08:59:29;;;;;;;12.70;10.65;;;;;;;15.02;54.87;100629.28;5034320;28;20132;-70
2022/04/22 09:01:56;;;;;;;11.27;9.63;;;;;;;15.12;54.29;100637.63;5034246;28;20038;-69
2022/04/22 09:04:26;;;;;;;12.95;9.00;;;;;;;15.13;53.60;100624.28;5031561;28;20109;-69
2022/04/22 09:06:54;;;;;;;14.38;9.30;;;;;;;15.28;53.37;100625.25;5034380;28;20042;-69
2022/04/22 09:09:21;;;;;;;11.52;9.68;;;;;;;15.41;52.91;100630.78;5034297;28;20034;-68
2022/04/22 09:11:49;;;;;;;11.38;8.70;;;;;;;15.25;52.96;100613.94;5032910;28;20483;-68
2022/04/22 09:14:20;;;;;;;15.98;9.35;;;;;;;15.11;52.63;100626.13;5031700;28;20495;-69
2022/04/22 09:16:49;;;;;;;11.00;9.23;;;;;;;15.19;52.78;100631.94;5028710;28;20449;-70
2022/04/22 09:19:18;;;;;;;10.13;8.85;;;;;;;15.14;52.26;100623.34;5031519;28;20042;-69
2022/04/22 09:21:56;;;;;;;13.65;9.45;;;;;;;15.19;52.21;100629.28;5032704;28;20058;-69
2022/04/22 09:24:24;;;;;;;11.93;8.25;;;;;;;15.47;51.03;100621.59;5025702;28;20053;-69
2022/04/22 09:27:08;;;;;;;10.35;8.55;;;;;;;16.06;49.82;100610.44;5033579;28;20523;-69
2022/04/22 09:29:53;;;;;;;9.93;8.77;;;;;;;16.43;48.87;100609.13;5032898;28;20046;-69
2022/04/22 09:32:30;;;;;;;16.98;9.68;;;;;;;16.54;48.99;100608.53;5028625;28;20114;-69
2022/04/22 09:35:13;;;;;;;10.90;8.40;;;;;;;16.42;48.28;100598.59;5022412;28;20046;-69
2022/04/22 09:43:38;;;;;;;11.10;8.35;;;;;;;15.91;49.08;100598.88;5033269;28;20038;-69
2022/04/22 09:46:30;;;;;;;14.23;8.98;;;;;;;16.21;49.27;100574.97;5031420;28;20498;-69
2022/04/22 09:48:59;;;;;;;10.80;8.82;;;;;;;16.59;48.16;100589.63;5032546;28;20581;-69
2022/04/22 09:51:30;;;;;;;11.15;8.40;;;;;;;16.69;47.25;100580.16;5032803;28;20538;-69
2022/04/22 09:54:09;;;;;;;11.75;9.77;;;;;;;16.48;48.40;100581.41;5032574;28;20053;-69
2022/04/22 09:56:41;;;;;;;10.90;8.63;;;;;;;16.65;48.76;100589.25;5029201;28;20042;-69
2022/04/22 09:59:30;;;;;;;13.25;8.98;;;;;;;16.89;47.18;100572.75;5033132;28;20595;-69
2022/04/22 10:02:02;;;;;;;10.65;8.57;;;;;;;16.76;46.80;100576.16;5032702;28;20042;-70
2022/04/22 10:04:38;;;;;;;10.60;8.52;;;;;;;16.80;46.68;100568.84;5032796;28;20530;-69
2022/04/22 10:07:08;;;;;;;13.43;8.43;;;;;;;16.99;46.40;100571.28;5031946;28;20042;-69
2022/04/22 10:09:36;;;;;;;10.23;8.40;;;;;;;16.85;46.65;100571.22;5031272;28;20049;-69
2022/04/22 10:12:10;;;;;;;10.50;8.80;;;;;;;16.86;46.97;100556.94;5032048;28;20512;-70
2022/04/22 10:14:43;;;;;;;12.30;8.95;;;;;;;16.87;46.83;100551.56;5026470;28;20046;-69
2022/04/22 10:17:12;;;;;;;13.00;8.93;;;;;;;16.85;46.98;100560.56;5030111;28;20042;-68
2022/04/22 10:19:42;;;;;;;12.32;8.30;;;;;;;16.65;46.55;100554.66;5033389;28;20113;-68
2022/04/22 10:22:11;;;;;;;13.20;9.27;;;;;;;16.42;47.75;100558.69;5032653;28;20052;-69
2022/04/22 10:24:40;;;;;;;11.95;9.27;;;;;;;16.25;48.25;100555.25;5031332;28;20065;-69
2022/04/22 10:27:10;;;;;;;12.30;9.07;;;;;;;16.03;48.66;100558.28;5018361;28;20495;-70
2022/04/22 10:29:41;;;;;;;12.80;9.68;;;;;;;15.95;49.17;100560.53;5027552;28;20567;-70
2022/04/22 10:32:12;;;;;;;11.95;9.52;;;;;;;15.80;49.73;100563.09;5031519;28;20412;-68
2022/04/22 10:34:43;;;;;;;13.15;8.40;;;;;;;15.64;49.84;100554.25;5032923;28;20504;-68
2022/04/22 10:37:24;;;;;;;11.68;9.55;;;;;;;15.61;50.41;100557.09;5032450;28;20124;-69
2022/04/22 10:39:54;;;;;;;11.93;9.48;;;;;;;15.65;50.41;100553.31;5031258;28;20041;-70
2022/04/22 10:42:38;;;;;;;11.32;8.88;;;;;;;15.62;50.69;100553.47;5030775;28;20133;-70
2022/04/22 10:48:29;;;;;;;16.40;9.23;;;;;;;15.73;50.36;100547.56;5015510;28;20512;-70
2022/04/22 10:51:03;;;;;;;12.15;7.53;;;;;;;15.55;50.16;100537.06;5018355;28;20069;-70
2022/04/22 10:53:46;;;;;;;12.02;9.02;;;;;;;15.64;50.76;100538.31;5027080;28;20081;-69
2022/04/22 10:56:25;;;;;;;13.10;9.40;;;;;;;15.83;50.46;100540.78;5030098;28;20487;-69
2022/04/22 10:59:28;;;;;;;11.70;9.02;;;;;;;15.75;50.28;100549.19;5012237;28;20036;-69
2022/04/22 11:01:56;;;;;;;14.18;8.38;;;;;;;15.59;50.25;100548.34;5031657;28;20054;-69
2022/04/22 11:04:28;;;;;;;16.77;8.60;;;;;;;15.36;50.87;100551.31;5025016;28;20038;-69
2022/04/22 11:06:57;;;;;;;11.77;8.35;;;;;;;15.29;51.46;100547.31;5032253;28;20053;-69
2022/04/22 11:09:30;;;;;;;11.13;8.20;;;;;;;15.34;51.41;100547.03;5030781;28;20130;-68
2022/04/22 11:11:59;;;;;;;10.00;7.30;;;;;;;15.35;51.12;100546.13;5030602;28;20584;-69
2022/04/22 11:14:28;;;;;;;9.30;7.63;;;;;;;15.40;51.03;100548.50;5031672;28;20056;-69
2022/04/22 11:17:32;;;;;;;12.15;8.15;;;;;;;15.57;50.71;100540.44;5031417;28;20038;-69
2022/04/22 11:20:00;;;;;;;9.75;7.85;;;;;;;15.90;49.94;100536.84;5031557;28;20105;-68
2022/04/22 11:22:56;;;;;;;9.60;7.70;;;;;;;16.32;48.76;100534.47;5031436;28;20091;-69
2022/04/22 11:25:26;;;;;;;11.23;7.50;;;;;;;16.51;48.41;100528.88;5026803;28;20535;-69
2022/04/22 11:27:57;;;;;;;11.20;8.18;;;;;;;16.67;47.71;100523.47;5025632;28;20531;-69
2022/04/22 11:30:29;;;;;;;13.57;7.57;;;;;;;16.86;47.20;100527.66;5012034;28;20466;-69
2022/04/22 11:33:11;;;;;;;12.65;7.10;;;;;;;16.98;46.72;100531.44;5025388;28;20062;-69
2022/04/22 11:35:40;;;;;;;10.35;6.75;;;;;;;16.88;46.86;100531.97;5031421;28;20038;-68
2022/04/22 11:38:08;;;;;;;10.30;7.07;;;;;;;16.77;47.17;100524.63;5031138;28;20049;-68
2022/04/22 11:40:39;;;;;;;10.95;7.40;;;;;;;16.57;47.14;100539.16;5031075;28;20038;-68
2022/04/22 11:43:28;;;;;;;13.80;7.72;;;;;;;16.08;47.88;100528.75;5031554;28;20752;-69
2022/04/22 11:45:55;;;;;;;11.00;7.03;;;;;;;15.77;48.87;100519.91;5030796;28;20151;-70
2022/04/22 11:48:25;;;;;;;13.82;7.03;;;;;;;15.51;49.37;100520.44;5031025;28;20056;-69
2022/04/22 11:50:56;;;;;;;7.80;6.63;;;;;;;15.34;49.85;100524.03;5031284;28;20046;-70
2022/04/22 11:53:32;;;;;;;10.90;6.88;;;;;;;15.20;50.12;100515.94;5030023;28;20088;-68
2022/04/22 11:56:04;;;;;;;9.68;6.60;;;;;;;15.11;50.18;100525.25;5030976;28;20100;-69
2022/04/22 11:58:32;;;;;;;8.30;6.50;;;;;;;15.21;50.31;100520.31;5031337;28;20038;-69
2022/04/22 12:06:42;;;;;;;11.48;6.43;;;;;;;15.88;48.53;100519.28;5034832;28;20056;-70
2022/04/22 12:09:09;;;;;;;10.23;7.25;;;;;;;15.82;48.30;100510.69;5033493;28;20038;-69
2022/04/22 12:11:44;;;;;;;9.88;7.43;;;;;;;15.76;48.94;100508.38;5033963;28;20049;-70
2022/04/22 12:14:22;;;;;;;10.32;7.03;;;;;;;15.79;49.13;100510.00;5024827;28;20501;-68
2022/04/22 12:17:01;;;;;;;10.25;6.82;;;;;;;16.03;48.66;100505.09;5028269;28;20132;-68
2022/04/22 12:19:28;;;;;;;11.75;7.28;;;;;;;16.06;48.09;100496.94;5027938;28;20050;-68
2022/04/22 12:22:02;;;;;;;11.85;6.97;;;;;;;16.21;48.32;100484.56;5030568;28;20049;-69
2022/04/22 12:25:12;;;;;;;11.00;7.10;;;;;;;16.58;47.15;100482.31;5030187;28;20125;-68
2022/04/22 12:27:41;;;;;;;13.68;6.88;;;;;;;17.04;46.20;100475.13;5029959;28;20836;-69